sensor_id;sensor_type;location;lat;lon;timestamp;temperature;humidity
33955;DHT22;20233;50.804;7.126;2023-02-15T00:01:43;3.70;99.90
33955;DHT22;20233;50.804;7.126;2023-02-15T00:04:09;3.70;99.90
33955;DHT22;20233;50.804;7.126;2023-02-15T00:06:35;3.70;99.90
33955;DHT22;20233;50.804;7.126;2023-02-15T00:09:02;3.70;99.90
33955;DHT22;20233;50.804;7.126;2023-02-15T00:11:28;3.60;99.90
33955;DHT22;20233;50.804;7.126;2023-02-15T00:14:17;3.50;99.90
33955;DHT22;20233;50.804;7.126;2023-02-15T00:16:44;3.50;99.90
33955;DHT22;20233;50.804;7.126;2023-02-15T00:19:11;3.50;99.90
33955;DHT22;20233;50.804;7.126;2023-02-15T00:21:38;3.40;99.90
33955;DHT22;20233;50.804;7.126;2023-02-15T00:24:06;3.40;99.90
33955;DHT22;20233;50.804;7.126;2023-02-15T00:26:32;3.40;99.90
33955;DHT22;20233;50.804;7.126;2023-02-15T00:28:58;3.50;99.90
33955;DHT22;20233;50.804;7.126;2023-02-15T00:31:25;3.50;99.90
33955;DHT22;20233;50.804;7.126;2023-02-15T00:33:51;3.50;99.90
33955;DHT22;20233;50.804;7.126;2023-02-15T00:36:16;3.50;99.90
33955;DHT22;20233;50.804;7.126;2023-02-15T00:38:42;3.40;99.90
33955;DHT22;20233;50.804;7.126;2023-02-15T00:41:08;3.40;99.90
33955;DHT22;20233;50.804;7.126;2023-02-15T00:43:34;3.40;99.90
33955;DHT22;20233;50.804;7.126;2023-02-15T00:46:01;3.30;99.90
33955;DHT22;20233;50.804;7.126;2023-02-15T00:48:27;3.30;99.90
33955;DHT22;20233;50.804;7.126;2023-02-15T00:50:57;3.40;99.90
33955;DHT22;20233;50.804;7.126;2023-02-15T00:53:24;3.30;99.90
33955;DHT22;20233;50.804;7.126;2023-02-15T00:55:50;3.40;99.90
33955;DHT22;20233;50.804;7.126;2023-02-15T00:58:16;3.30;99.90
33955;DHT22;20233;50.804;7.126;2023-02-15T01:00:46;3.30;99.90
33955;DHT22;20233;50.804;7.126;2023-02-15T01:03:14;3.30;99.90
33955;DHT22;20233;50.804;7.126;2023-02-15T01:05:40;3.20;99.90
33955;DHT22;20233;50.804;7.126;2023-02-15T01:08:06;3.10;99.90
33955;DHT22;20233;50.804;7.126;2023-02-15T01:10:33;3.20;99.90
33955;DHT22;20233;50.804;7.126;2023-02-15T01:12:59;3.20;99.90
33955;DHT22;20233;50.804;7.126;2023-02-15T01:15:24;3.20;99.90
33955;DHT22;20233;50.804;7.126;2023-02-15T01:17:51;3.20;99.90
33955;DHT22;20233;50.804;7.126;2023-02-15T01:20:19;3.10;99.90
33955;DHT22;20233;50.804;7.126;2023-02-15T01:22:45;3.10;99.90
33955;DHT22;20233;50.804;7.126;2023-02-15T01:25:11;3.20;99.90
33955;DHT22;20233;50.804;7.126;2023-02-15T01:27:36;3.10;99.90
33955;DHT22;20233;50.804;7.126;2023-02-15T01:30:02;3.10;99.90
33955;DHT22;20233;50.804;7.126;2023-02-15T01:32:30;3.20;99.90
33955;DHT22;20233;50.804;7.126;2023-02-15T01:34:56;3.10;99.90
33955;DHT22;20233;50.804;7.126;2023-02-15T01:37:21;3.10;99.90
33955;DHT22;20233;50.804;7.126;2023-02-15T01:39:47;3.10;99.90
33955;DHT22;20233;50.804;7.126;2023-02-15T01:42:12;3.00;99.90
33955;DHT22;20233;50.804;7.126;2023-02-15T01:45:04;3.00;99.90
33955;DHT22;20233;50.804;7.126;2023-02-15T01:47:57;3.00;99.90
33955;DHT22;20233;50.804;7.126;2023-02-15T01:50:33;3.00;99.90
33955;DHT22;20233;50.804;7.126;2023-02-15T01:56:04;2.90;99.90
33955;DHT22;20233;50.804;7.126;2023-02-15T01:58:32;2.90;99.90
33955;DHT22;20233;50.804;7.126;2023-02-15T02:01:00;2.90;99.90
33955;DHT22;20233;50.804;7.126;2023-02-15T02:04:21;2.90;99.90
33955;DHT22;20233;50.804;7.126;2023-02-15T02:06:39;2.80;99.90
33955;DHT22;20233;50.804;7.126;2023-02-15T02:09:05;2.80;99.90
33955;DHT22;20233;50.804;7.126;2023-02-15T02:11:31;2.80;99.90
33955;DHT22;20233;50.804;7.126;2023-02-15T02:13:57;2.70;99.90
33955;DHT22;20233;50.804;7.126;2023-02-15T02:16:45;2.80;99.90
33955;DHT22;20233;50.804;7.126;2023-02-15T02:20:21;2.80;99.90
33955;DHT22;20233;50.804;7.126;2023-02-15T02:25:17;2.80;99.90
33955;DHT22;20233;50.804;7.126;2023-02-15T02:30:56;2.70;99.90
33955;DHT22;20233;50.804;7.126;2023-02-15T02:42:04;2.60;99.90
33955;DHT22;20233;50.804;7.126;2023-02-15T02:49:43;2.50;99.90
33955;DHT22;20233;50.804;7.126;2023-02-15T02:52:47;2.50;99.90
33955;DHT22;20233;50.804;7.126;2023-02-15T03:00:40;2.50;99.90
33955;DHT22;20233;50.804;7.126;2023-02-15T03:03:13;2.50;99.90
33955;DHT22;20233;50.804;7.126;2023-02-15T03:05:44;2.50;99.90
33955;DHT22;20233;50.804;7.126;2023-02-15T03:08:15;2.50;99.90
33955;DHT22;20233;50.804;7.126;2023-02-15T03:10:48;2.50;99.90
33955;DHT22;20233;50.804;7.126;2023-02-15T03:13:16;2.50;99.90
33955;DHT22;20233;50.804;7.126;2023-02-15T03:15:43;2.50;99.90
33955;DHT22;20233;50.804;7.126;2023-02-15T03:18:38;2.50;99.90
33955;DHT22;20233;50.804;7.126;2023-02-15T03:21:05;2.50;99.90
33955;DHT22;20233;50.804;7.126;2023-02-15T03:23:33;2.50;99.90
33955;DHT22;20233;50.804;7.126;2023-02-15T03:26:05;2.40;99.90
33955;DHT22;20233;50.804;7.126;2023-02-15T03:28:33;2.30;99.90
33955;DHT22;20233;50.804;7.126;2023-02-15T03:31:03;2.40;99.90
33955;DHT22;20233;50.804;7.126;2023-02-15T03:33:30;2.40;99.90
33955;DHT22;20233;50.804;7.126;2023-02-15T03:36:01;2.40;99.90
33955;DHT22;20233;50.804;7.126;2023-02-15T03:38:37;2.30;99.90
33955;DHT22;20233;50.804;7.126;2023-02-15T03:41:07;2.40;99.90
33955;DHT22;20233;50.804;7.126;2023-02-15T03:48:53;2.40;99.90
33955;DHT22;20233;50.804;7.126;2023-02-15T03:51:22;2.30;99.90
33955;DHT22;20233;50.804;7.126;2023-02-15T03:56:40;2.30;99.90
33955;DHT22;20233;50.804;7.126;2023-02-15T03:59:07;2.20;99.90
33955;DHT22;20233;50.804;7.126;2023-02-15T04:02:08;2.30;99.90
33955;DHT22;20233;50.804;7.126;2023-02-15T04:04:37;2.30;99.90
33955;DHT22;20233;50.804;7.126;2023-02-15T04:07:06;2.30;99.90
33955;DHT22;20233;50.804;7.126;2023-02-15T04:09:32;2.30;99.90
33955;DHT22;20233;50.804;7.126;2023-02-15T04:12:17;2.30;99.90
33955;DHT22;20233;50.804;7.126;2023-02-15T04:14:43;2.20;99.90
33955;DHT22;20233;50.804;7.126;2023-02-15T04:17:27;2.20;99.90
33955;DHT22;20233;50.804;7.126;2023-02-15T04:19:53;2.20;99.90
33955;DHT22;20233;50.804;7.126;2023-02-15T04:22:37;2.10;99.90
33955;DHT22;20233;50.804;7.126;2023-02-15T04:25:21;2.20;99.90
33955;DHT22;20233;50.804;7.126;2023-02-15T04:27:49;2.20;99.90
33955;DHT22;20233;50.804;7.126;2023-02-15T04:30:16;2.20;99.90
33955;DHT22;20233;50.804;7.126;2023-02-15T04:32:42;2.20;99.90
33955;DHT22;20233;50.804;7.126;2023-02-15T04:35:08;2.20;99.90
33955;DHT22;20233;50.804;7.126;2023-02-15T04:37:34;2.10;99.90
33955;DHT22;20233;50.804;7.126;2023-02-15T04:40:00;2.10;99.90
33955;DHT22;20233;50.804;7.126;2023-02-15T04:42:26;2.20;99.90
33955;DHT22;20233;50.804;7.126;2023-02-15T04:44:52;2.20;99.90
33955;DHT22;20233;50.804;7.126;2023-02-15T04:47:18;2.10;99.90
33955;DHT22;20233;50.804;7.126;2023-02-15T04:49:44;2.10;99.90
33955;DHT22;20233;50.804;7.126;2023-02-15T04:52:10;2.10;99.90
33955;DHT22;20233;50.804;7.126;2023-02-15T04:54:35;2.10;99.90
33955;DHT22;20233;50.804;7.126;2023-02-15T04:57:01;2.10;99.90
33955;DHT22;20233;50.804;7.126;2023-02-15T04:59:27;2.10;99.90
33955;DHT22;20233;50.804;7.126;2023-02-15T05:01:53;2.10;99.90
33955;DHT22;20233;50.804;7.126;2023-02-15T05:04:18;2.10;99.90
33955;DHT22;20233;50.804;7.126;2023-02-15T05:06:44;2.10;99.90
33955;DHT22;20233;50.804;7.126;2023-02-15T05:09:11;2.10;99.90
33955;DHT22;20233;50.804;7.126;2023-02-15T05:11:37;2.10;99.90
33955;DHT22;20233;50.804;7.126;2023-02-15T05:14:03;2.10;99.90
33955;DHT22;20233;50.804;7.126;2023-02-15T05:16:28;2.10;99.90
33955;DHT22;20233;50.804;7.126;2023-02-15T05:18:54;2.00;99.90
33955;DHT22;20233;50.804;7.126;2023-02-15T05:21:20;2.10;99.90
33955;DHT22;20233;50.804;7.126;2023-02-15T05:23:45;2.10;99.90
33955;DHT22;20233;50.804;7.126;2023-02-15T05:26:18;2.10;99.90
33955;DHT22;20233;50.804;7.126;2023-02-15T05:29:02;2.10;99.90
33955;DHT22;20233;50.804;7.126;2023-02-15T05:31:28;2.00;99.90
33955;DHT22;20233;50.804;7.126;2023-02-15T05:33:53;2.10;99.90
33955;DHT22;20233;50.804;7.126;2023-02-15T05:36:19;2.10;99.90
33955;DHT22;20233;50.804;7.126;2023-02-15T05:38:44;2.00;99.90
33955;DHT22;20233;50.804;7.126;2023-02-15T05:41:11;2.10;99.90
33955;DHT22;20233;50.804;7.126;2023-02-15T05:43:38;2.00;99.90
33955;DHT22;20233;50.804;7.126;2023-02-15T05:46:04;2.10;99.90
33955;DHT22;20233;50.804;7.126;2023-02-15T05:48:31;2.00;99.90
33955;DHT22;20233;50.804;7.126;2023-02-15T05:51:05;2.00;99.90
33955;DHT22;20233;50.804;7.126;2023-02-15T05:53:33;2.00;99.90
33955;DHT22;20233;50.804;7.126;2023-02-15T05:55:59;2.00;99.90
33955;DHT22;20233;50.804;7.126;2023-02-15T05:58:27;2.00;99.90
33955;DHT22;20233;50.804;7.126;2023-02-15T06:00:53;2.00;99.90
33955;DHT22;20233;50.804;7.126;2023-02-15T06:03:19;2.00;99.90
33955;DHT22;20233;50.804;7.126;2023-02-15T06:05:44;1.90;99.90
33955;DHT22;20233;50.804;7.126;2023-02-15T06:08:10;1.90;99.90
33955;DHT22;20233;50.804;7.126;2023-02-15T06:10:35;1.90;99.90
33955;DHT22;20233;50.804;7.126;2023-02-15T06:13:01;1.90;99.90
33955;DHT22;20233;50.804;7.126;2023-02-15T06:15:27;1.90;99.90
33955;DHT22;20233;50.804;7.126;2023-02-15T06:17:52;1.90;99.90
33955;DHT22;20233;50.804;7.126;2023-02-15T06:20:18;1.90;99.90
33955;DHT22;20233;50.804;7.126;2023-02-15T06:22:43;1.90;99.90
33955;DHT22;20233;50.804;7.126;2023-02-15T06:25:09;1.90;99.90
33955;DHT22;20233;50.804;7.126;2023-02-15T06:27:36;1.90;99.90
33955;DHT22;20233;50.804;7.126;2023-02-15T06:30:06;1.90;99.90
33955;DHT22;20233;50.804;7.126;2023-02-15T06:32:32;1.80;99.90
33955;DHT22;20233;50.804;7.126;2023-02-15T06:34:57;1.80;99.90
33955;DHT22;20233;50.804;7.126;2023-02-15T06:37:23;1.80;99.90
33955;DHT22;20233;50.804;7.126;2023-02-15T06:39:48;1.80;99.90
33955;DHT22;20233;50.804;7.126;2023-02-15T06:42:14;1.80;99.90
33955;DHT22;20233;50.804;7.126;2023-02-15T06:44:39;1.80;99.90
33955;DHT22;20233;50.804;7.126;2023-02-15T06:47:05;1.80;99.90
33955;DHT22;20233;50.804;7.126;2023-02-15T06:49:31;1.80;99.90
33955;DHT22;20233;50.804;7.126;2023-02-15T06:51:57;1.80;99.90
33955;DHT22;20233;50.804;7.126;2023-02-15T06:54:23;1.80;99.90
33955;DHT22;20233;50.804;7.126;2023-02-15T06:56:48;1.80;99.90
33955;DHT22;20233;50.804;7.126;2023-02-15T06:59:14;1.90;99.90
33955;DHT22;20233;50.804;7.126;2023-02-15T07:01:39;1.90;99.90
33955;DHT22;20233;50.804;7.126;2023-02-15T07:04:05;1.80;99.90
33955;DHT22;20233;50.804;7.126;2023-02-15T07:06:34;1.80;99.90
33955;DHT22;20233;50.804;7.126;2023-02-15T07:09:00;1.90;99.90
33955;DHT22;20233;50.804;7.126;2023-02-15T07:11:26;1.90;99.90
33955;DHT22;20233;50.804;7.126;2023-02-15T07:14:10;1.90;99.90
33955;DHT22;20233;50.804;7.126;2023-02-15T07:16:36;1.90;99.90
33955;DHT22;20233;50.804;7.126;2023-02-15T07:19:01;1.90;99.90
33955;DHT22;20233;50.804;7.126;2023-02-15T07:21:27;1.90;99.90
33955;DHT22;20233;50.804;7.126;2023-02-15T07:23:56;1.90;99.90
33955;DHT22;20233;50.804;7.126;2023-02-15T07:26:21;1.90;99.90
33955;DHT22;20233;50.804;7.126;2023-02-15T07:28:47;1.90;99.90
33955;DHT22;20233;50.804;7.126;2023-02-15T07:31:13;1.90;99.90
33955;DHT22;20233;50.804;7.126;2023-02-15T07:33:38;2.00;99.90
33955;DHT22;20233;50.804;7.126;2023-02-15T07:36:04;2.00;99.90
33955;DHT22;20233;50.804;7.126;2023-02-15T07:38:33;2.00;99.90
33955;DHT22;20233;50.804;7.126;2023-02-15T07:41:04;2.00;99.90
33955;DHT22;20233;50.804;7.126;2023-02-15T07:43:32;2.00;99.90
33955;DHT22;20233;50.804;7.126;2023-02-15T07:46:02;2.10;99.90
33955;DHT22;20233;50.804;7.126;2023-02-15T07:48:28;2.10;99.90
33955;DHT22;20233;50.804;7.126;2023-02-15T07:50:54;2.10;99.90
33955;DHT22;20233;50.804;7.126;2023-02-15T07:53:19;2.10;99.90
33955;DHT22;20233;50.804;7.126;2023-02-15T07:55:45;2.20;99.90
33955;DHT22;20233;50.804;7.126;2023-02-15T07:58:10;2.10;99.90
33955;DHT22;20233;50.804;7.126;2023-02-15T08:00:37;2.20;99.90
33955;DHT22;20233;50.804;7.126;2023-02-15T08:03:24;2.30;99.90
33955;DHT22;20233;50.804;7.126;2023-02-15T08:05:55;2.30;99.90
33955;DHT22;20233;50.804;7.126;2023-02-15T08:08:21;2.30;99.90
33955;DHT22;20233;50.804;7.126;2023-02-15T08:10:59;2.40;99.90
33955;DHT22;20233;50.804;7.126;2023-02-15T08:14:04;2.40;99.90
33955;DHT22;20233;50.804;7.126;2023-02-15T08:16:42;2.40;99.90
33955;DHT22;20233;50.804;7.126;2023-02-15T08:19:10;2.50;99.90
33955;DHT22;20233;50.804;7.126;2023-02-15T08:21:39;2.50;99.90
33955;DHT22;20233;50.804;7.126;2023-02-15T08:24:06;2.50;99.90
33955;DHT22;20233;50.804;7.126;2023-02-15T08:26:32;2.50;99.90
33955;DHT22;20233;50.804;7.126;2023-02-15T08:28:59;2.60;99.90
33955;DHT22;20233;50.804;7.126;2023-02-15T08:31:25;2.60;99.90
33955;DHT22;20233;50.804;7.126;2023-02-15T08:33:52;2.70;99.90
33955;DHT22;20233;50.804;7.126;2023-02-15T08:36:21;2.70;99.90
33955;DHT22;20233;50.804;7.126;2023-02-15T08:38:47;2.80;99.90
33955;DHT22;20233;50.804;7.126;2023-02-15T08:43:41;2.90;99.90
33955;DHT22;20233;50.804;7.126;2023-02-15T08:46:08;2.90;99.90
33955;DHT22;20233;50.804;7.126;2023-02-15T08:48:34;2.90;99.90
33955;DHT22;20233;50.804;7.126;2023-02-15T08:51:05;3.00;99.90
33955;DHT22;20233;50.804;7.126;2023-02-15T08:53:31;3.10;99.90
33955;DHT22;20233;50.804;7.126;2023-02-15T08:55:57;3.20;99.90
33955;DHT22;20233;50.804;7.126;2023-02-15T08:58:23;3.20;99.90
33955;DHT22;20233;50.804;7.126;2023-02-15T09:00:49;3.20;99.90
33955;DHT22;20233;50.804;7.126;2023-02-15T09:03:14;3.30;99.90
33955;DHT22;20233;50.804;7.126;2023-02-15T09:05:40;3.40;99.90
33955;DHT22;20233;50.804;7.126;2023-02-15T09:08:05;3.50;99.90
33955;DHT22;20233;50.804;7.126;2023-02-15T09:10:31;3.60;99.90
33955;DHT22;20233;50.804;7.126;2023-02-15T09:12:57;3.60;99.90
33955;DHT22;20233;50.804;7.126;2023-02-15T09:15:22;3.70;99.90
33955;DHT22;20233;50.804;7.126;2023-02-15T09:17:47;3.80;99.90
33955;DHT22;20233;50.804;7.126;2023-02-15T09:20:13;3.80;99.90
33955;DHT22;20233;50.804;7.126;2023-02-15T09:22:39;3.90;99.90
33955;DHT22;20233;50.804;7.126;2023-02-15T09:25:04;4.00;99.90
33955;DHT22;20233;50.804;7.126;2023-02-15T09:27:30;4.10;99.90
33955;DHT22;20233;50.804;7.126;2023-02-15T09:29:56;4.10;99.90
33955;DHT22;20233;50.804;7.126;2023-02-15T09:32:21;4.20;99.90
33955;DHT22;20233;50.804;7.126;2023-02-15T09:34:47;4.30;99.90
33955;DHT22;20233;50.804;7.126;2023-02-15T09:37:13;4.30;99.90
33955;DHT22;20233;50.804;7.126;2023-02-15T09:39:41;4.40;99.90
33955;DHT22;20233;50.804;7.126;2023-02-15T09:42:25;4.50;99.90
33955;DHT22;20233;50.804;7.126;2023-02-15T09:45:16;4.50;99.90
33955;DHT22;20233;50.804;7.126;2023-02-15T09:48:02;4.70;99.90
33955;DHT22;20233;50.804;7.126;2023-02-15T09:56:13;4.90;99.90
33955;DHT22;20233;50.804;7.126;2023-02-15T10:10:46;5.50;99.90
33955;DHT22;20233;50.804;7.126;2023-02-15T10:13:32;5.60;99.90
33955;DHT22;20233;50.804;7.126;2023-02-15T10:16:21;5.80;99.90
33955;DHT22;20233;50.804;7.126;2023-02-15T10:19:08;5.90;99.90
33955;DHT22;20233;50.804;7.126;2023-02-15T10:21:46;6.00;99.90
33955;DHT22;20233;50.804;7.126;2023-02-15T10:26:56;6.20;99.90
33955;DHT22;20233;50.804;7.126;2023-02-15T10:29:34;6.30;99.90
33955;DHT22;20233;50.804;7.126;2023-02-15T10:32:24;6.30;99.90
33955;DHT22;20233;50.804;7.126;2023-02-15T10:35:00;6.40;99.90
33955;DHT22;20233;50.804;7.126;2023-02-15T10:37:45;6.60;99.90
33955;DHT22;20233;50.804;7.126;2023-02-15T10:43:14;6.70;99.90
33955;DHT22;20233;50.804;7.126;2023-02-15T10:51:52;7.00;99.90
33955;DHT22;20233;50.804;7.126;2023-02-15T10:54:47;7.20;99.90
33955;DHT22;20233;50.804;7.126;2023-02-15T10:57:34;7.30;99.90
33955;DHT22;20233;50.804;7.126;2023-02-15T11:00:37;7.40;99.90
33955;DHT22;20233;50.804;7.126;2023-02-15T11:06:09;7.70;99.90
33955;DHT22;20233;50.804;7.126;2023-02-15T11:08:50;7.80;99.90
33955;DHT22;20233;50.804;7.126;2023-02-15T11:11:35;7.90;99.90
33955;DHT22;20233;50.804;7.126;2023-02-15T11:14:12;8.00;99.90
33955;DHT22;20233;50.804;7.126;2023-02-15T11:16:43;8.10;99.90
33955;DHT22;20233;50.804;7.126;2023-02-15T11:19:15;8.20;99.90
33955;DHT22;20233;50.804;7.126;2023-02-15T11:21:46;8.30;99.90
33955;DHT22;20233;50.804;7.126;2023-02-15T11:24:17;8.30;99.90
33955;DHT22;20233;50.804;7.126;2023-02-15T11:32:23;8.70;99.90
33955;DHT22;20233;50.804;7.126;2023-02-15T11:38:06;9.00;99.90
33955;DHT22;20233;50.804;7.126;2023-02-15T11:40:49;9.20;99.90
33955;DHT22;20233;50.804;7.126;2023-02-15T11:43:26;9.30;99.90
33955;DHT22;20233;50.804;7.126;2023-02-15T11:45:54;9.40;99.90
33955;DHT22;20233;50.804;7.126;2023-02-15T11:48:20;9.50;99.90
33955;DHT22;20233;50.804;7.126;2023-02-15T11:50:45;9.60;99.90
33955;DHT22;20233;50.804;7.126;2023-02-15T11:55:38;9.80;99.90
33955;DHT22;20233;50.804;7.126;2023-02-15T11:58:25;9.90;99.90
33955;DHT22;20233;50.804;7.126;2023-02-15T12:00:59;10.00;99.90
33955;DHT22;20233;50.804;7.126;2023-02-15T12:03:47;10.00;99.90
33955;DHT22;20233;50.804;7.126;2023-02-15T12:06:18;10.20;99.90
33955;DHT22;20233;50.804;7.126;2023-02-15T12:08:54;10.30;99.90
33955;DHT22;20233;50.804;7.126;2023-02-15T12:11:39;10.40;99.90
33955;DHT22;20233;50.804;7.126;2023-02-15T12:14:09;10.40;99.90
33955;DHT22;20233;50.804;7.126;2023-02-15T12:16:44;10.60;99.90
33955;DHT22;20233;50.804;7.126;2023-02-15T12:19:30;10.50;99.90
33955;DHT22;20233;50.804;7.126;2023-02-15T12:21:58;10.50;99.90
33955;DHT22;20233;50.804;7.126;2023-02-15T12:24:28;10.60;99.90
33955;DHT22;20233;50.804;7.126;2023-02-15T12:27:02;10.70;99.90
33955;DHT22;20233;50.804;7.126;2023-02-15T12:29:39;10.80;99.90
33955;DHT22;20233;50.804;7.126;2023-02-15T12:32:08;10.80;99.90
33955;DHT22;20233;50.804;7.126;2023-02-15T12:34:38;10.90;99.90
33955;DHT22;20233;50.804;7.126;2023-02-15T12:37:16;11.10;99.90
33955;DHT22;20233;50.804;7.126;2023-02-15T12:39:59;11.10;99.90
33955;DHT22;20233;50.804;7.126;2023-02-15T12:42:27;11.30;99.90
33955;DHT22;20233;50.804;7.126;2023-02-15T12:45:01;11.30;99.90
33955;DHT22;20233;50.804;7.126;2023-02-15T12:47:28;11.50;99.90
33955;DHT22;20233;50.804;7.126;2023-02-15T12:50:07;11.50;99.90
33955;DHT22;20233;50.804;7.126;2023-02-15T12:52:36;11.50;99.90
33955;DHT22;20233;50.804;7.126;2023-02-15T12:55:20;11.50;99.90
33955;DHT22;20233;50.804;7.126;2023-02-15T12:57:45;11.50;99.90
33955;DHT22;20233;50.804;7.126;2023-02-15T13:02:49;11.50;99.90
33955;DHT22;20233;50.804;7.126;2023-02-15T13:05:18;11.50;99.90
33955;DHT22;20233;50.804;7.126;2023-02-15T13:07:54;11.60;99.90
33955;DHT22;20233;50.804;7.126;2023-02-15T13:10:36;11.60;99.90
33955;DHT22;20233;50.804;7.126;2023-02-15T13:13:09;11.70;99.90
33955;DHT22;20233;50.804;7.126;2023-02-15T13:15:37;11.80;99.90
33955;DHT22;20233;50.804;7.126;2023-02-15T13:18:05;11.80;99.90
33955;DHT22;20233;50.804;7.126;2023-02-15T13:20:36;11.80;99.90
33955;DHT22;20233;50.804;7.126;2023-02-15T13:23:13;11.90;99.90
33955;DHT22;20233;50.804;7.126;2023-02-15T13:25:47;11.90;99.90
33955;DHT22;20233;50.804;7.126;2023-02-15T13:28:16;11.90;99.90
33955;DHT22;20233;50.804;7.126;2023-02-15T13:30:45;12.10;99.90
33955;DHT22;20233;50.804;7.126;2023-02-15T13:33:33;12.00;99.90
33955;DHT22;20233;50.804;7.126;2023-02-15T13:36:15;12.10;99.90
33955;DHT22;20233;50.804;7.126;2023-02-15T13:38:52;12.20;99.90
33955;DHT22;20233;50.804;7.126;2023-02-15T13:41:32;12.20;99.90
33955;DHT22;20233;50.804;7.126;2023-02-15T13:44:41;12.30;99.90
33955;DHT22;20233;50.804;7.126;2023-02-15T13:47:21;12.30;99.90
33955;DHT22;20233;50.804;7.126;2023-02-15T13:52:43;12.40;99.90
33955;DHT22;20233;50.804;7.126;2023-02-15T13:55:26;12.40;99.90
33955;DHT22;20233;50.804;7.126;2023-02-15T13:58:14;12.50;99.90
33955;DHT22;20233;50.804;7.126;2023-02-15T14:06:38;12.50;99.90
33955;DHT22;20233;50.804;7.126;2023-02-15T14:09:17;12.40;99.90
33955;DHT22;20233;50.804;7.126;2023-02-15T14:12:00;12.50;99.90
33955;DHT22;20233;50.804;7.126;2023-02-15T14:20:47;12.50;99.90
33955;DHT22;20233;50.804;7.126;2023-02-15T14:25:57;12.40;99.90
33955;DHT22;20233;50.804;7.126;2023-02-15T14:28:31;12.40;99.90
33955;DHT22;20233;50.804;7.126;2023-02-15T14:30:59;12.40;99.90
33955;DHT22;20233;50.804;7.126;2023-02-15T14:33:39;12.40;99.90
33955;DHT22;20233;50.804;7.126;2023-02-15T14:36:07;12.40;99.90
33955;DHT22;20233;50.804;7.126;2023-02-15T14:41:19;12.50;99.90
33955;DHT22;20233;50.804;7.126;2023-02-15T14:46:36;12.50;99.90
33955;DHT22;20233;50.804;7.126;2023-02-15T14:49:30;12.30;99.90
33955;DHT22;20233;50.804;7.126;2023-02-15T14:51:59;12.30;99.90
33955;DHT22;20233;50.804;7.126;2023-02-15T15:02:15;12.20;99.90
33955;DHT22;20233;50.804;7.126;2023-02-15T15:04:45;12.10;99.90
33955;DHT22;20233;50.804;7.126;2023-02-15T15:07:21;12.20;99.90
33955;DHT22;20233;50.804;7.126;2023-02-15T15:12:50;12.10;99.90
33955;DHT22;20233;50.804;7.126;2023-02-15T15:26:20;12.00;99.90
33955;DHT22;20233;50.804;7.126;2023-02-15T15:31:46;12.00;99.90
33955;DHT22;20233;50.804;7.126;2023-02-15T15:34:28;12.00;99.90
33955;DHT22;20233;50.804;7.126;2023-02-15T15:50:41;11.70;99.90
33955;DHT22;20233;50.804;7.126;2023-02-15T15:53:19;11.60;99.90
33955;DHT22;20233;50.804;7.126;2023-02-15T15:55:47;11.70;99.90
33955;DHT22;20233;50.804;7.126;2023-02-15T15:58:17;11.50;99.90
33955;DHT22;20233;50.804;7.126;2023-02-15T16:03:16;11.50;99.90
33955;DHT22;20233;50.804;7.126;2023-02-15T16:05:45;11.40;99.90
33955;DHT22;20233;50.804;7.126;2023-02-15T16:08:10;11.40;99.90
33955;DHT22;20233;50.804;7.126;2023-02-15T16:10:36;11.30;99.90
33955;DHT22;20233;50.804;7.126;2023-02-15T16:13:04;11.20;99.90
33955;DHT22;20233;50.804;7.126;2023-02-15T16:15:49;11.10;99.90
33955;DHT22;20233;50.804;7.126;2023-02-15T16:18:20;11.00;99.90
33955;DHT22;20233;50.804;7.126;2023-02-15T16:20:56;11.00;99.90
33955;DHT22;20233;50.804;7.126;2023-02-15T16:28:56;10.80;99.90
33955;DHT22;20233;50.804;7.126;2023-02-15T16:31:22;10.70;99.90
33955;DHT22;20233;50.804;7.126;2023-02-15T16:33:48;10.60;99.90
33955;DHT22;20233;50.804;7.126;2023-02-15T16:36:27;10.50;99.90
33955;DHT22;20233;50.804;7.126;2023-02-15T16:41:24;10.50;99.90
33955;DHT22;20233;50.804;7.126;2023-02-15T16:43:51;10.50;99.90
33955;DHT22;20233;50.804;7.126;2023-02-15T16:46:27;10.40;99.90
33955;DHT22;20233;50.804;7.126;2023-02-15T16:51:25;10.10;99.90
33955;DHT22;20233;50.804;7.126;2023-02-15T16:53:52;10.00;99.90
33955;DHT22;20233;50.804;7.126;2023-02-15T16:56:24;10.10;99.90
33955;DHT22;20233;50.804;7.126;2023-02-15T16:58:52;10.10;99.90
33955;DHT22;20233;50.804;7.126;2023-02-15T17:01:21;10.10;99.90
33955;DHT22;20233;50.804;7.126;2023-02-15T17:03:50;9.90;99.90
33955;DHT22;20233;50.804;7.126;2023-02-15T17:06:26;9.90;99.90
33955;DHT22;20233;50.804;7.126;2023-02-15T17:09:03;9.70;99.90
33955;DHT22;20233;50.804;7.126;2023-02-15T17:11:45;9.70;99.90
33955;DHT22;20233;50.804;7.126;2023-02-15T17:14:13;9.50;99.90
33955;DHT22;20233;50.804;7.126;2023-02-15T17:17:12;9.60;99.90
33955;DHT22;20233;50.804;7.126;2023-02-15T17:19:51;9.30;99.90
33955;DHT22;20233;50.804;7.126;2023-02-15T17:22:23;9.40;99.90
33955;DHT22;20233;50.804;7.126;2023-02-15T17:24:50;9.40;99.90
33955;DHT22;20233;50.804;7.126;2023-02-15T17:27:24;9.20;99.90
33955;DHT22;20233;50.804;7.126;2023-02-15T17:29:55;9.20;99.90
33955;DHT22;20233;50.804;7.126;2023-02-15T17:32:24;9.20;99.90
33955;DHT22;20233;50.804;7.126;2023-02-15T17:37:43;9.10;99.90
33955;DHT22;20233;50.804;7.126;2023-02-15T17:40:27;9.10;99.90
33955;DHT22;20233;50.804;7.126;2023-02-15T17:42:53;9.10;99.90
33955;DHT22;20233;50.804;7.126;2023-02-15T17:45:19;9.00;99.90
33955;DHT22;20233;50.804;7.126;2023-02-15T17:47:47;9.00;99.90
33955;DHT22;20233;50.804;7.126;2023-02-15T17:50:24;9.00;99.90
33955;DHT22;20233;50.804;7.126;2023-02-15T17:52:51;9.00;99.90
33955;DHT22;20233;50.804;7.126;2023-02-15T17:55:20;9.00;99.90
33955;DHT22;20233;50.804;7.126;2023-02-15T17:58:15;8.90;99.90
33955;DHT22;20233;50.804;7.126;2023-02-15T18:00:48;8.90;99.90
33955;DHT22;20233;50.804;7.126;2023-02-15T18:04:03;8.90;99.90
33955;DHT22;20233;50.804;7.126;2023-02-15T18:06:47;8.60;99.90
33955;DHT22;20233;50.804;7.126;2023-02-15T18:09:32;8.60;99.90
33955;DHT22;20233;50.804;7.126;2023-02-15T18:12:32;8.70;99.90
33955;DHT22;20233;50.804;7.126;2023-02-15T18:14:59;8.60;99.90
33955;DHT22;20233;50.804;7.126;2023-02-15T18:17:38;8.60;99.90
33955;DHT22;20233;50.804;7.126;2023-02-15T18:20:19;8.60;99.90
33955;DHT22;20233;50.804;7.126;2023-02-15T18:22:46;8.60;99.90
33955;DHT22;20233;50.804;7.126;2023-02-15T18:25:18;8.60;99.90
33955;DHT22;20233;50.804;7.126;2023-02-15T18:27:43;8.50;99.90
33955;DHT22;20233;50.804;7.126;2023-02-15T18:30:20;8.50;99.90
33955;DHT22;20233;50.804;7.126;2023-02-15T18:32:48;8.40;99.90
33955;DHT22;20233;50.804;7.126;2023-02-15T18:35:18;8.40;99.90
33955;DHT22;20233;50.804;7.126;2023-02-15T18:37:45;8.40;99.90
33955;DHT22;20233;50.804;7.126;2023-02-15T18:40:19;8.40;99.90
33955;DHT22;20233;50.804;7.126;2023-02-15T18:42:45;8.40;99.90
33955;DHT22;20233;50.804;7.126;2023-02-15T18:45:16;8.40;99.90
33955;DHT22;20233;50.804;7.126;2023-02-15T18:47:42;8.40;99.90
33955;DHT22;20233;50.804;7.126;2023-02-15T18:50:08;8.30;99.90
33955;DHT22;20233;50.804;7.126;2023-02-15T18:52:36;8.30;99.90